sensor_id;sensor_type;location;lat;lon;timestamp;pressure;altitude;pressure_sealevel;temperature;humidity
68656;BME280;55638;51.122;13.606;2024-03-25T00:00:14;98609.22;;;4.84;55.41
68656;BME280;55638;51.122;13.606;2024-03-25T00:01:45;98609.38;;;4.82;55.37
68656;BME280;55638;51.122;13.606;2024-03-25T00:03:16;98626.38;;;4.81;55.50
68656;BME280;55638;51.122;13.606;2024-03-25T00:04:46;98618.38;;;4.81;55.39
68656;BME280;55638;51.122;13.606;2024-03-25T00:06:17;98621.97;;;4.80;55.64
68656;BME280;55638;51.122;13.606;2024-03-25T00:07:48;98623.81;;;4.80;55.63
68656;BME280;55638;51.122;13.606;2024-03-25T00:09:19;98618.47;;;4.80;55.63
68656;BME280;55638;51.122;13.606;2024-03-25T00:10:51;98608.63;;;4.80;55.53
68656;BME280;55638;51.122;13.606;2024-03-25T00:12:21;98626.63;;;4.78;55.54
68656;BME280;55638;51.122;13.606;2024-03-25T00:13:52;98640.94;;;4.77;55.76
68656;BME280;55638;51.122;13.606;2024-03-25T00:15:23;98637.31;;;4.78;55.57
68656;BME280;55638;51.122;13.606;2024-03-25T00:16:56;98651.59;;;4.77;55.53
68656;BME280;55638;51.122;13.606;2024-03-25T00:18:27;98627.84;;;4.74;55.38
68656;BME280;55638;51.122;13.606;2024-03-25T00:19:58;98641.44;;;4.71;55.39
68656;BME280;55638;51.122;13.606;2024-03-25T00:21:29;98637.34;;;4.67;56.12
68656;BME280;55638;51.122;13.606;2024-03-25T00:23:00;98641.00;;;4.66;55.36
68656;BME280;55638;51.122;13.606;2024-03-25T00:24:31;98645.75;;;4.63;55.61
68656;BME280;55638;51.122;13.606;2024-03-25T00:26:02;98640.66;;;4.59;55.27
68656;BME280;55638;51.122;13.606;2024-03-25T00:27:33;98634.00;;;4.54;55.66
68656;BME280;55638;51.122;13.606;2024-03-25T00:29:04;98635.25;;;4.50;55.73
68656;BME280;55638;51.122;13.606;2024-03-25T00:30:35;98641.69;;;4.47;55.63
68656;BME280;55638;51.122;13.606;2024-03-25T00:32:06;98634.91;;;4.43;55.76
68656;BME280;55638;51.122;13.606;2024-03-25T00:33:37;98643.16;;;4.40;55.86
68656;BME280;55638;51.122;13.606;2024-03-25T00:35:08;98632.75;;;4.37;55.81
68656;BME280;55638;51.122;13.606;2024-03-25T00:36:39;98650.81;;;4.33;55.99
68656;BME280;55638;51.122;13.606;2024-03-25T00:38:10;98630.59;;;4.31;56.19
68656;BME280;55638;51.122;13.606;2024-03-25T00:39:41;98642.34;;;4.28;56.26
68656;BME280;55638;51.122;13.606;2024-03-25T00:41:11;98627.31;;;4.27;56.19
68656;BME280;55638;51.122;13.606;2024-03-25T00:42:42;98636.56;;;4.23;56.35
68656;BME280;55638;51.122;13.606;2024-03-25T00:44:13;98625.31;;;4.20;56.92
68656;BME280;55638;51.122;13.606;2024-03-25T00:45:45;98637.75;;;4.19;56.52
68656;BME280;55638;51.122;13.606;2024-03-25T00:47:15;98635.34;;;4.16;57.45
68656;BME280;55638;51.122;13.606;2024-03-25T00:48:46;98641.41;;;4.18;56.56
68656;BME280;55638;51.122;13.606;2024-03-25T00:50:17;98637.16;;;4.16;56.45
68656;BME280;55638;51.122;13.606;2024-03-25T00:51:48;98635.47;;;4.15;56.73
68656;BME280;55638;51.122;13.606;2024-03-25T00:53:19;98629.31;;;4.14;56.54
68656;BME280;55638;51.122;13.606;2024-03-25T00:54:49;98637.41;;;4.12;56.80
68656;BME280;55638;51.122;13.606;2024-03-25T00:56:20;98636.47;;;4.13;56.93
68656;BME280;55638;51.122;13.606;2024-03-25T00:57:51;98629.56;;;4.11;57.06
68656;BME280;55638;51.122;13.606;2024-03-25T00:59:22;98638.53;;;4.10;57.10
68656;BME280;55638;51.122;13.606;2024-03-25T01:00:52;98635.00;;;4.09;57.25
68656;BME280;55638;51.122;13.606;2024-03-25T01:02:23;98630.66;;;4.08;57.15
68656;BME280;55638;51.122;13.606;2024-03-25T01:03:54;98629.66;;;4.09;57.16
68656;BME280;55638;51.122;13.606;2024-03-25T01:05:25;98636.72;;;4.10;57.35
68656;BME280;55638;51.122;13.606;2024-03-25T01:06:55;98638.53;;;4.10;57.25
68656;BME280;55638;51.122;13.606;2024-03-25T01:08:26;98639.38;;;4.10;57.14
68656;BME280;55638;51.122;13.606;2024-03-25T01:09:57;98640.22;;;4.11;57.53
68656;BME280;55638;51.122;13.606;2024-03-25T01:11:29;98638.53;;;4.10;57.43
68656;BME280;55638;51.122;13.606;2024-03-25T01:12:59;98642.88;;;4.11;57.66
68656;BME280;55638;51.122;13.606;2024-03-25T01:14:30;98653.41;;;4.12;57.40
68656;BME280;55638;51.122;13.606;2024-03-25T01:16:01;98664.91;;;4.13;57.40
68656;BME280;55638;51.122;13.606;2024-03-25T01:17:31;98657.91;;;4.12;57.68
68656;BME280;55638;51.122;13.606;2024-03-25T01:19:02;98664.06;;;4.12;57.74
68656;BME280;55638;51.122;13.606;2024-03-25T01:20:34;98655.13;;;4.13;57.46
68656;BME280;55638;51.122;13.606;2024-03-25T01:22:04;98651.47;;;4.15;57.41
68656;BME280;55638;51.122;13.606;2024-03-25T01:23:35;98651.72;;;4.11;58.41
68656;BME280;55638;51.122;13.606;2024-03-25T01:25:06;98656.81;;;4.15;57.28
68656;BME280;55638;51.122;13.606;2024-03-25T01:26:37;98671.00;;;4.15;57.25
68656;BME280;55638;51.122;13.606;2024-03-25T01:28:08;98656.81;;;4.15;56.94
68656;BME280;55638;51.122;13.606;2024-03-25T01:29:38;98655.13;;;4.13;57.25
68656;BME280;55638;51.122;13.606;2024-03-25T01:31:09;98670.25;;;4.13;57.13
68656;BME280;55638;51.122;13.606;2024-03-25T01:32:40;98662.25;;;4.13;57.07
68656;BME280;55638;51.122;13.606;2024-03-25T01:34:10;98667.72;;;4.11;57.38
68656;BME280;55638;51.122;13.606;2024-03-25T01:35:41;98663.38;;;4.10;57.45
68656;BME280;55638;51.122;13.606;2024-03-25T01:37:12;98666.03;;;4.10;57.51
68656;BME280;55638;51.122;13.606;2024-03-25T01:38:44;98669.56;;;4.11;57.49
68656;BME280;55638;51.122;13.606;2024-03-25T01:40:15;98666.03;;;4.10;57.53
68656;BME280;55638;51.122;13.606;2024-03-25T01:41:45;98675.88;;;4.10;57.45
68656;BME280;55638;51.122;13.606;2024-03-25T01:43:16;98676.72;;;4.10;57.33
68656;BME280;55638;51.122;13.606;2024-03-25T01:44:47;98681.31;;;4.08;57.54
68656;BME280;55638;51.122;13.606;2024-03-25T01:46:20;98678.53;;;4.10;57.52
68656;BME280;55638;51.122;13.606;2024-03-25T01:47:52;98676.72;;;4.10;57.45
68656;BME280;55638;51.122;13.606;2024-03-25T01:49:23;98679.47;;;4.09;57.52
68656;BME280;55638;51.122;13.606;2024-03-25T01:50:55;98680.31;;;4.09;57.32
68656;BME280;55638;51.122;13.606;2024-03-25T01:52:27;98672.47;;;4.08;57.35
68656;BME280;55638;51.122;13.606;2024-03-25T01:53:58;98676.97;;;4.07;57.54
68656;BME280;55638;51.122;13.606;2024-03-25T01:55:32;98688.47;;;4.08;57.42
68656;BME280;55638;51.122;13.606;2024-03-25T01:57:04;98676.22;;;4.05;57.30
68656;BME280;55638;51.122;13.606;2024-03-25T01:58:34;98668.34;;;4.04;57.33
68656;BME280;55638;51.122;13.606;2024-03-25T02:00:07;98683.47;;;4.03;57.27
68656;BME280;55638;51.122;13.606;2024-03-25T02:01:39;98676.59;;;4.01;57.53
68656;BME280;55638;51.122;13.606;2024-03-25T02:03:10;98672.97;;;4.02;57.49
68656;BME280;55638;51.122;13.606;2024-03-25T02:04:42;98673.94;;;4.01;57.28
68656;BME280;55638;51.122;13.606;2024-03-25T02:06:15;98686.53;;;3.99;57.62
68656;BME280;55638;51.122;13.606;2024-03-25T02:07:46;98683.88;;;3.99;57.46
68656;BME280;55638;51.122;13.606;2024-03-25T02:09:18;98680.47;;;3.97;58.06
68656;BME280;55638;51.122;13.606;2024-03-25T02:10:49;98685.78;;;3.97;57.68
68656;BME280;55638;51.122;13.606;2024-03-25T02:12:20;98680.47;;;3.97;57.98
68656;BME280;55638;51.122;13.606;2024-03-25T02:13:52;98683.13;;;3.97;58.11
68656;BME280;55638;51.122;13.606;2024-03-25T02:15:22;98676.84;;;3.98;58.12
68656;BME280;55638;51.122;13.606;2024-03-25T02:16:53;98682.19;;;3.98;57.97
68656;BME280;55638;51.122;13.606;2024-03-25T02:18:24;98677.56;;;4.00;58.00
68656;BME280;55638;51.122;13.606;2024-03-25T02:19:55;98687.28;;;4.01;57.89
68656;BME280;55638;51.122;13.606;2024-03-25T02:21:26;98692.59;;;4.01;58.09
68656;BME280;55638;51.122;13.606;2024-03-25T02:22:56;98690.63;;;4.03;58.03
68656;BME280;55638;51.122;13.606;2024-03-25T02:24:27;98705.69;;;4.04;58.11
68656;BME280;55638;51.122;13.606;2024-03-25T02:25:59;98692.09;;;4.07;57.97
68656;BME280;55638;51.122;13.606;2024-03-25T02:27:30;98688.31;;;4.09;58.14
68656;BME280;55638;51.122;13.606;2024-03-25T02:29:02;98690.16;;;4.09;58.07
68656;BME280;55638;51.122;13.606;2024-03-25T02:30:33;98688.31;;;4.09;58.10
68656;BME280;55638;51.122;13.606;2024-03-25T02:32:04;98689.06;;;4.11;58.01
68656;BME280;55638;51.122;13.606;2024-03-25T02:33:35;98700.47;;;4.13;58.08
68656;BME280;55638;51.122;13.606;2024-03-25T02:35:10;98691.47;;;4.15;58.50
68656;BME280;55638;51.122;13.606;2024-03-25T02:36:42;98695.00;;;4.15;58.24
68656;BME280;55638;51.122;13.606;2024-03-25T02:38:13;98693.31;;;4.14;58.41
68656;BME280;55638;51.122;13.606;2024-03-25T02:39:46;98696.69;;;4.16;58.10
68656;BME280;55638;51.122;13.606;2024-03-25T02:41:17;98701.16;;;4.16;58.32
68656;BME280;55638;51.122;13.606;2024-03-25T02:42:47;98701.06;;;4.17;58.12
68656;BME280;55638;51.122;13.606;2024-03-25T02:44:19;98709.06;;;4.17;58.54
68656;BME280;55638;51.122;13.606;2024-03-25T02:45:49;98699.09;;;4.19;58.08
68656;BME280;55638;51.122;13.606;2024-03-25T02:47:20;98707.09;;;4.19;58.05
68656;BME280;55638;51.122;13.606;2024-03-25T02:48:51;98707.09;;;4.19;58.11
68656;BME280;55638;51.122;13.606;2024-03-25T02:50:22;98716.09;;;4.18;58.26
68656;BME280;55638;51.122;13.606;2024-03-25T02:51:52;98708.06;;;4.18;58.21
68656;BME280;55638;51.122;13.606;2024-03-25T02:53:23;98716.09;;;4.18;58.35
68656;BME280;55638;51.122;13.606;2024-03-25T02:54:54;98721.16;;;4.21;58.28
68656;BME280;55638;51.122;13.606;2024-03-25T02:56:25;98714.41;;;4.17;58.50
68656;BME280;55638;51.122;13.606;2024-03-25T02:57:55;98724.91;;;4.19;58.43
68656;BME280;55638;51.122;13.606;2024-03-25T02:59:26;98722.25;;;4.19;58.60
68656;BME280;55638;51.122;13.606;2024-03-25T03:00:57;98722.16;;;4.20;58.65
68656;BME280;55638;51.122;13.606;2024-03-25T03:02:28;98731.00;;;4.21;58.50
68656;BME280;55638;51.122;13.606;2024-03-25T03:03:58;98731.84;;;4.21;58.29
68656;BME280;55638;51.122;13.606;2024-03-25T03:05:29;98732.69;;;4.22;58.71
68656;BME280;55638;51.122;13.606;2024-03-25T03:07:00;98737.91;;;4.23;58.38
68656;BME280;55638;51.122;13.606;2024-03-25T03:08:31;98735.94;;;4.25;58.36
68656;BME280;55638;51.122;13.606;2024-03-25T03:10:01;98735.00;;;4.26;58.58
68656;BME280;55638;51.122;13.606;2024-03-25T03:11:32;98743.94;;;4.25;58.53
68656;BME280;55638;51.122;13.606;2024-03-25T03:13:04;98739.22;;;4.29;58.41
68656;BME280;55638;51.122;13.606;2024-03-25T03:14:35;98744.53;;;4.29;58.62
68656;BME280;55638;51.122;13.606;2024-03-25T03:16:06;98759.47;;;4.31;58.24
68656;BME280;55638;51.122;13.606;2024-03-25T03:17:36;98743.59;;;4.30;58.47
68656;BME280;55638;51.122;13.606;2024-03-25T03:19:07;98749.63;;;4.32;58.45
68656;BME280;55638;51.122;13.606;2024-03-25T03:20:38;98757.53;;;4.33;58.45
68656;BME280;55638;51.122;13.606;2024-03-25T03:22:08;98753.16;;;4.32;58.42
68656;BME280;55638;51.122;13.606;2024-03-25T03:23:39;98752.91;;;4.35;58.50
68656;BME280;55638;51.122;13.606;2024-03-25T03:25:10;98757.38;;;4.35;58.59
68656;BME280;55638;51.122;13.606;2024-03-25T03:26:40;98755.56;;;4.35;58.47
68656;BME280;55638;51.122;13.606;2024-03-25T03:28:11;98758.97;;;4.38;58.41
68656;BME280;55638;51.122;13.606;2024-03-25T03:29:42;98766.00;;;4.39;58.35
68656;BME280;55638;51.122;13.606;2024-03-25T03:31:13;98763.22;;;4.40;58.35
68656;BME280;55638;51.122;13.606;2024-03-25T03:32:43;98764.06;;;4.41;58.34
68656;BME280;55638;51.122;13.606;2024-03-25T03:34:14;98759.56;;;4.41;58.42
68656;BME280;55638;51.122;13.606;2024-03-25T03:35:45;98764.91;;;4.41;58.40
68656;BME280;55638;51.122;13.606;2024-03-25T03:37:15;98774.47;;;4.44;58.20
68656;BME280;55638;51.122;13.606;2024-03-25T03:38:46;98764.66;;;4.44;58.36
68656;BME280;55638;51.122;13.606;2024-03-25T03:40:17;98774.47;;;4.44;58.37
68656;BME280;55638;51.122;13.606;2024-03-25T03:41:48;98772.66;;;4.44;58.30
68656;BME280;55638;51.122;13.606;2024-03-25T03:43:19;98768.16;;;4.45;58.23
68656;BME280;55638;51.122;13.606;2024-03-25T03:44:50;98783.22;;;4.46;58.01
68656;BME280;55638;51.122;13.606;2024-03-25T03:46:21;98772.56;;;4.46;58.00
68656;BME280;55638;51.122;13.606;2024-03-25T03:47:51;98789.41;;;4.46;58.02
68656;BME280;55638;51.122;13.606;2024-03-25T03:49:22;98785.03;;;4.45;58.13
68656;BME280;55638;51.122;13.606;2024-03-25T03:50:53;98779.56;;;4.47;57.95
68656;BME280;55638;51.122;13.606;2024-03-25T03:52:24;98778.72;;;4.46;58.05
68656;BME280;55638;51.122;13.606;2024-03-25T03:53:56;98781.25;;;4.48;58.06
68656;BME280;55638;51.122;13.606;2024-03-25T03:55:26;98784.91;;;4.47;58.23
68656;BME280;55638;51.122;13.606;2024-03-25T03:56:57;98784.66;;;4.50;58.03
68656;BME280;55638;51.122;13.606;2024-03-25T03:58:28;98790.09;;;4.48;57.99
68656;BME280;55638;51.122;13.606;2024-03-25T03:59:59;98788.28;;;4.49;57.96
68656;BME280;55638;51.122;13.606;2024-03-25T04:01:29;98780.28;;;4.49;58.16
68656;BME280;55638;51.122;13.606;2024-03-25T04:03:01;98795.34;;;4.50;58.12
68656;BME280;55638;51.122;13.606;2024-03-25T04:04:32;98781.00;;;4.51;57.88
68656;BME280;55638;51.122;13.606;2024-03-25T04:06:08;98796.03;;;4.52;58.07
68656;BME280;55638;51.122;13.606;2024-03-25T04:07:38;98786.09;;;4.54;57.82
68656;BME280;55638;51.122;13.606;2024-03-25T04:09:09;98799.59;;;4.52;57.86
68656;BME280;55638;51.122;13.606;2024-03-25T04:10:40;98802.97;;;4.54;58.04
68656;BME280;55638;51.122;13.606;2024-03-25T04:12:11;98803.69;;;4.56;57.98
68656;BME280;55638;51.122;13.606;2024-03-25T04:13:41;98809.88;;;4.57;57.84
68656;BME280;55638;51.122;13.606;2024-03-25T04:15:13;98815.94;;;4.59;57.79
68656;BME280;55638;51.122;13.606;2024-03-25T04:16:48;98806.97;;;4.60;57.99
68656;BME280;55638;51.122;13.606;2024-03-25T04:18:19;98811.31;;;4.61;57.89
68656;BME280;55638;51.122;13.606;2024-03-25T04:19:50;98812.06;;;4.63;57.72
68656;BME280;55638;51.122;13.606;2024-03-25T04:21:21;98819.91;;;4.65;57.71
68656;BME280;55638;51.122;13.606;2024-03-25T04:22:52;98804.78;;;4.65;57.62
68656;BME280;55638;51.122;13.606;2024-03-25T04:24:22;98808.16;;;4.67;57.78
68656;BME280;55638;51.122;13.606;2024-03-25T04:25:54;98821.41;;;4.69;57.68
68656;BME280;55638;51.122;13.606;2024-03-25T04:27:25;98820.50;;;4.68;57.64
68656;BME280;55638;51.122;13.606;2024-03-25T04:28:57;98815.06;;;4.70;57.54
68656;BME280;55638;51.122;13.606;2024-03-25T04:30:28;98830.94;;;4.71;57.68
68656;BME280;55638;51.122;13.606;2024-03-25T04:31:59;98830.00;;;4.72;57.50
68656;BME280;55638;51.122;13.606;2024-03-25T04:33:29;98834.34;;;4.73;57.57
68656;BME280;55638;51.122;13.606;2024-03-25T04:35:01;98837.75;;;4.75;57.64
68656;BME280;55638;51.122;13.606;2024-03-25T04:36:31;98836.78;;;4.76;57.42
68656;BME280;55638;51.122;13.606;2024-03-25T04:38:02;98836.78;;;4.76;57.35
68656;BME280;55638;51.122;13.606;2024-03-25T04:39:33;98838.47;;;4.77;57.49
68656;BME280;55638;51.122;13.606;2024-03-25T04:41:04;98848.19;;;4.78;57.49
68656;BME280;55638;51.122;13.606;2024-03-25T04:42:35;98843.69;;;4.79;57.20
68656;BME280;55638;51.122;13.606;2024-03-25T04:44:06;98848.19;;;4.78;57.35
68656;BME280;55638;51.122;13.606;2024-03-25T04:45:37;98854.22;;;4.80;57.23
68656;BME280;55638;51.122;13.606;2024-03-25T04:47:08;98847.31;;;4.78;57.27
68656;BME280;55638;51.122;13.606;2024-03-25T04:48:38;98857.88;;;4.79;57.07
68656;BME280;55638;51.122;13.606;2024-03-25T04:50:09;98852.53;;;4.79;57.24
68656;BME280;55638;51.122;13.606;2024-03-25T04:51:40;98854.22;;;4.80;57.22
68656;BME280;55638;51.122;13.606;2024-03-25T04:53:11;98857.88;;;4.79;57.11
68656;BME280;55638;51.122;13.606;2024-03-25T04:54:43;98863.09;;;4.81;56.98
68656;BME280;55638;51.122;13.606;2024-03-25T04:56:13;98862.25;;;4.80;57.11
68656;BME280;55638;51.122;13.606;2024-03-25T04:57:44;98867.59;;;4.80;57.14
68656;BME280;55638;51.122;13.606;2024-03-25T04:59:15;98871.22;;;4.79;56.99
68656;BME280;55638;51.122;13.606;2024-03-25T05:00:45;98868.56;;;4.79;56.96
68656;BME280;55638;51.122;13.606;2024-03-25T05:02:16;98877.31;;;4.81;56.85
68656;BME280;55638;51.122;13.606;2024-03-25T05:03:47;98876.44;;;4.81;56.98
68656;BME280;55638;51.122;13.606;2024-03-25T05:05:17;98874.63;;;4.81;56.74
68656;BME280;55638;51.122;13.606;2024-03-25T05:06:48;98869.31;;;4.81;56.82
68656;BME280;55638;51.122;13.606;2024-03-25T05:08:19;98874.63;;;4.81;56.90
68656;BME280;55638;51.122;13.606;2024-03-25T05:09:50;98880.94;;;4.80;56.87
68656;BME280;55638;51.122;13.606;2024-03-25T05:11:22;98880.94;;;4.80;56.80
68656;BME280;55638;51.122;13.606;2024-03-25T05:12:55;98887.13;;;4.81;56.83
68656;BME280;55638;51.122;13.606;2024-03-25T05:14:27;98899.63;;;4.80;56.95
68656;BME280;55638;51.122;13.606;2024-03-25T05:15:58;98887.25;;;4.79;56.80
68656;BME280;55638;51.122;13.606;2024-03-25T05:17:29;98895.25;;;4.79;56.96
68656;BME280;55638;51.122;13.606;2024-03-25T05:18:59;98898.91;;;4.78;56.83
68656;BME280;55638;51.122;13.606;2024-03-25T05:20:30;98899.84;;;4.77;56.78
68656;BME280;55638;51.122;13.606;2024-03-25T05:22:01;98900.94;;;4.75;56.74
68656;BME280;55638;51.122;13.606;2024-03-25T05:23:32;98902.91;;;4.73;56.91
68656;BME280;55638;51.122;13.606;2024-03-25T05:25:02;98906.66;;;4.70;57.02
68656;BME280;55638;51.122;13.606;2024-03-25T05:26:33;98902.41;;;4.68;57.08
68656;BME280;55638;51.122;13.606;2024-03-25T05:28:04;98911.53;;;4.65;57.11
68656;BME280;55638;51.122;13.606;2024-03-25T05:29:35;98915.16;;;4.64;57.15
68656;BME280;55638;51.122;13.606;2024-03-25T05:31:06;98911.78;;;4.62;57.31
68656;BME280;55638;51.122;13.606;2024-03-25T05:32:38;98924.38;;;4.60;57.01
68656;BME280;55638;51.122;13.606;2024-03-25T05:34:08;98918.31;;;4.58;56.97
68656;BME280;55638;51.122;13.606;2024-03-25T05:35:40;98920.28;;;4.56;57.15
68656;BME280;55638;51.122;13.606;2024-03-25T05:37:11;98925.72;;;4.54;57.20
68656;BME280;55638;51.122;13.606;2024-03-25T05:38:42;98934.69;;;4.53;57.44
68656;BME280;55638;51.122;13.606;2024-03-25T05:40:13;98930.44;;;4.51;57.46
68656;BME280;55638;51.122;13.606;2024-03-25T05:41:46;98928.63;;;4.51;57.20
68656;BME280;55638;51.122;13.606;2024-03-25T05:43:17;98930.44;;;4.51;57.38
68656;BME280;55638;51.122;13.606;2024-03-25T05:44:48;98930.44;;;4.51;57.39
68656;BME280;55638;51.122;13.606;2024-03-25T05:46:19;98935.78;;;4.51;57.38
68656;BME280;55638;51.122;13.606;2024-03-25T05:47:50;98939.19;;;4.53;57.48
68656;BME280;55638;51.122;13.606;2024-03-25T05:49:21;98941.72;;;4.54;57.31
68656;BME280;55638;51.122;13.606;2024-03-25T05:52:31;98938.09;;;4.55;57.50
68656;BME280;55638;51.122;13.606;2024-03-25T05:54:02;98942.31;;;4.58;57.48
68656;BME280;55638;51.122;13.606;2024-03-25T05:55:33;98942.31;;;4.58;57.51
68656;BME280;55638;51.122;13.606;2024-03-25T05:57:03;98937.72;;;4.60;57.42
68656;BME280;55638;51.122;13.606;2024-03-25T05:58:34;98949.16;;;4.62;57.29
68656;BME280;55638;51.122;13.606;2024-03-25T06:00:05;98950.84;;;4.63;57.56
68656;BME280;55638;51.122;13.606;2024-03-25T06:01:42;98943.56;;;4.65;57.42
68656;BME280;55638;51.122;13.606;2024-03-25T06:03:13;98950.34;;;4.69;57.53
68656;BME280;55638;51.122;13.606;2024-03-25T06:04:44;98953.72;;;4.71;57.53
68656;BME280;55638;51.122;13.606;2024-03-25T06:06:14;98958.84;;;4.74;57.47
68656;BME280;55638;51.122;13.606;2024-03-25T06:07:45;98956.91;;;4.76;57.33
68656;BME280;55638;51.122;13.606;2024-03-25T06:09:16;98956.66;;;4.79;57.27
68656;BME280;55638;51.122;13.606;2024-03-25T06:10:47;98957.25;;;4.83;57.31
68656;BME280;55638;51.122;13.606;2024-03-25T06:12:17;98954.47;;;4.84;57.32
68656;BME280;55638;51.122;13.606;2024-03-25T06:13:48;98961.38;;;4.87;57.15
68656;BME280;55638;51.122;13.606;2024-03-25T06:15:19;98965.53;;;4.91;57.26
68656;BME280;55638;51.122;13.606;2024-03-25T06:16:49;98972.56;;;4.92;57.13
68656;BME280;55638;51.122;13.606;2024-03-25T06:18:20;98973.16;;;4.96;56.93
68656;BME280;55638;51.122;13.606;2024-03-25T06:19:51;98970.34;;;4.97;57.10
68656;BME280;55638;51.122;13.606;2024-03-25T06:21:22;98976.56;;;4.98;57.13
68656;BME280;55638;51.122;13.606;2024-03-25T06:22:53;98971.94;;;5.00;57.15
68656;BME280;55638;51.122;13.606;2024-03-25T06:24:24;98987.84;;;5.01;57.02
68656;BME280;55638;51.122;13.606;2024-03-25T06:25:55;98986.88;;;5.02;56.96
68656;BME280;55638;51.122;13.606;2024-03-25T06:27:26;98987.63;;;5.04;57.01
68656;BME280;55638;51.122;13.606;2024-03-25T06:28:58;98982.13;;;5.06;56.84
68656;BME280;55638;51.122;13.606;2024-03-25T06:30:28;98988.31;;;5.06;56.71
68656;BME280;55638;51.122;13.606;2024-03-25T06:32:18;98989.16;;;5.07;56.86
68656;BME280;55638;51.122;13.606;2024-03-25T06:34:07;98988.06;;;5.10;56.75
68656;BME280;55638;51.122;13.606;2024-03-25T06:35:52;98998.66;;;5.11;56.74
68656;BME280;55638;51.122;13.606;2024-03-25T06:37:23;98992.44;;;5.11;56.86
68656;BME280;55638;51.122;13.606;2024-03-25T06:38:54;99000.34;;;5.12;56.60
68656;BME280;55638;51.122;13.606;2024-03-25T06:40:24;99002.03;;;5.13;56.74
68656;BME280;55638;51.122;13.606;2024-03-25T06:41:55;99008.13;;;5.15;56.83
68656;BME280;55638;51.122;13.606;2024-03-25T06:43:26;98995.59;;;5.16;56.79
68656;BME280;55638;51.122;13.606;2024-03-25T06:44:56;98999.00;;;5.18;56.78
68656;BME280;55638;51.122;13.606;2024-03-25T06:46:27;98991.72;;;5.20;56.72
68656;BME280;55638;51.122;13.606;2024-03-25T06:47:58;99009.31;;;5.22;56.72
68656;BME280;55638;51.122;13.606;2024-03-25T06:49:29;99009.22;;;5.24;56.67
68656;BME280;55638;51.122;13.606;2024-03-25T06:51:00;99004.50;;;5.27;56.80
68656;BME280;55638;51.122;13.606;2024-03-25T06:52:33;99004.38;;;5.29;56.79
68656;BME280;55638;51.122;13.606;2024-03-25T06:54:03;99008.47;;;5.33;56.51
68656;BME280;55638;51.122;13.606;2024-03-25T06:55:34;99005.56;;;5.36;56.36
68656;BME280;55638;51.122;13.606;2024-03-25T06:57:05;99008.13;;;5.38;56.53
68656;BME280;55638;51.122;13.606;2024-03-25T06:58:36;99014.91;;;5.42;56.46
68656;BME280;55638;51.122;13.606;2024-03-25T07:00:07;99014.66;;;5.45;56.71
68656;BME280;55638;51.122;13.606;2024-03-25T07:01:43;99005.56;;;5.47;56.42
68656;BME280;55638;51.122;13.606;2024-03-25T07:03:18;99011.34;;;5.52;56.33
68656;BME280;55638;51.122;13.606;2024-03-25T07:04:49;99011.84;;;5.58;56.36
68656;BME280;55638;51.122;13.606;2024-03-25T07:06:19;99023.28;;;5.60;56.35
68656;BME280;55638;51.122;13.606;2024-03-25T07:07:50;99021.19;;;5.63;56.22
68656;BME280;55638;51.122;13.606;2024-03-25T07:09:21;99026.28;;;5.66;56.09
68656;BME280;55638;51.122;13.606;2024-03-25T07:10:51;99021.66;;;5.68;56.03
68656;BME280;55638;51.122;13.606;2024-03-25T07:12:23;99024.06;;;5.71;56.09
68656;BME280;55638;51.122;13.606;2024-03-25T07:13:53;99022.13;;;5.73;55.97
68656;BME280;55638;51.122;13.606;2024-03-25T07:15:25;99027.34;;;5.75;55.72
68656;BME280;55638;51.122;13.606;2024-03-25T07:16:56;99026.25;;;5.77;55.75
68656;BME280;55638;51.122;13.606;2024-03-25T07:18:27;99033.19;;;5.80;56.13
68656;BME280;55638;51.122;13.606;2024-03-25T07:19:57;99026.72;;;5.83;56.09
68656;BME280;55638;51.122;13.606;2024-03-25T07:21:28;99040.81;;;5.85;56.10
68656;BME280;55638;51.122;13.606;2024-03-25T07:22:59;99037.78;;;5.89;56.10
68656;BME280;55638;51.122;13.606;2024-03-25T07:24:30;99040.06;;;5.94;56.18
68656;BME280;55638;51.122;13.606;2024-03-25T07:26:00;99041.50;;;5.98;56.29
68656;BME280;55638;51.122;13.606;2024-03-25T07:27:31;99043.81;;;6.03;56.13
68656;BME280;55638;51.122;13.606;2024-03-25T07:29:02;99045.13;;;6.08;55.83
68656;BME280;55638;51.122;13.606;2024-03-25T07:30:33;99046.56;;;6.12;55.74
68656;BME280;55638;51.122;13.606;2024-03-25T07:32:04;99048.84;;;6.17;55.62
68656;BME280;55638;51.122;13.606;2024-03-25T07:33:35;99045.91;;;6.20;55.64
68656;BME280;55638;51.122;13.606;2024-03-25T07:35:06;99055.25;;;6.26;55.54
68656;BME280;55638;51.122;13.606;2024-03-25T07:36:38;99048.94;;;6.27;55.50
68656;BME280;55638;51.122;13.606;2024-03-25T07:38:09;99050.50;;;6.29;55.55
68656;BME280;55638;51.122;13.606;2024-03-25T07:39:39;99059.84;;;6.35;55.66
68656;BME280;55638;51.122;13.606;2024-03-25T07:41:10;99056.91;;;6.38;55.62
68656;BME280;55638;51.122;13.606;2024-03-25T07:42:41;99060.28;;;6.40;55.54
68656;BME280;55638;51.122;13.606;2024-03-25T07:44:12;99056.13;;;6.47;55.48
68656;BME280;55638;51.122;13.606;2024-03-25T07:45:43;99060.25;;;6.51;55.18
68656;BME280;55638;51.122;13.606;2024-03-25T07:47:13;99064.50;;;6.54;54.90
68656;BME280;55638;51.122;13.606;2024-03-25T07:48:44;99067.63;;;6.59;55.03
68656;BME280;55638;51.122;13.606;2024-03-25T07:50:15;99066.53;;;6.61;54.63
68656;BME280;55638;51.122;13.606;2024-03-25T07:51:45;99077.09;;;6.63;54.62
68656;BME280;55638;51.122;13.606;2024-03-25T07:53:16;99068.78;;;6.66;54.72
68656;BME280;55638;51.122;13.606;2024-03-25T07:54:47;99067.84;;;6.67;54.91
68656;BME280;55638;51.122;13.606;2024-03-25T07:56:18;99074.63;;;6.71;54.91
68656;BME280;55638;51.122;13.606;2024-03-25T07:57:49;99069.13;;;6.73;54.90
68656;BME280;55638;51.122;13.606;2024-03-25T07:59:19;99078.34;;;6.80;54.85
68656;BME280;55638;51.122;13.606;2024-03-25T08:00:50;99079.78;;;6.84;54.97
68656;BME280;55638;51.122;13.606;2024-03-25T08:02:21;99078.44;;;6.89;54.80
68656;BME280;55638;51.122;13.606;2024-03-25T08:03:52;99075.22;;;6.96;54.69